METAR Data
IDs: Format: Raw Decoded Include TAF

Data at: 0239 UTC 12 May 2021

KEKM 112052Z 34008G15KT 10SM SKC 10/M02 A3030 RMK AO2
KEKM 111952Z 31012G20KT 10SM FEW050 11/M02 A3031 RMK AO2
KEKM 111852Z 30010G18KT 10SM SCT050 10/M02 A3032 RMK AO2
KEKM 111752Z 32010G18KT 10SM SCT050 10/M02 A3033 RMK AO2
KEKM 111652Z 33012G18KT 10SM SCT050 11/M01 A3033 RMK AO2
KEKM 111552Z 32010G16KT 10SM SCT049 10/M02 A3033 RMK AO2
KEKM 111452Z 01008KT 10SM CLR 09/M02 A3032 RMK AO2
KEKM 111352Z 02007KT 10SM CLR 08/M02 A3032 RMK AO2
KEKM 111252Z 36005KT 10SM CLR 07/M01 A3031 RMK AO2
KEKM 111152Z 36006KT 10SM CLR 04/00 A3030 RMK AO2
KEKM 111052Z 00000KT 10SM CLR 00/M01 A3028 RMK AO2
KEKM 110052Z 31004KT 10SM CLR 08/M01 A3017 RMK AO2 LAST
KEKM 102352Z 34006KT 10SM CLR 09/00 A3016 RMK AO2
KEKM 102252Z 35006KT 10SM CLR 10/00 A3014 RMK AO2
KEKM 102152Z 31008KT 10SM SCT041 12/02 A3014 RMK AO2
KEKM 102052Z 36008KT 10SM BKN044 11/02 A3013 RMK AO2
KEKM 101952Z 29005KT 10SM SKC 12/00 A3014 RMK AO2
KEKM 101852Z 00000KT 10SM SKC 12/00 A3012 RMK AO2
KEKM 101752Z 36006KT 10SM SCT050 11/M01 A3014 RMK AO2
KEKM 101652Z 03005KT 10SM SKC 10/M01 A3014 RMK AO2
KEKM 101552Z 00000KT 10SM SKC 11/00 A3013 RMK AO2
KEKM 101452Z 00000KT 10SM SKC 10/00 A3012 RMK AO2